Time;durP1;ratioP1;P1;durP2;ratioP2;P2;SDS_P1;SDS_P2;PMS_P1;PMS_P2;Temp;Humidity;BMP_temperature;BMP_pressure;BME280_temperature;BME280_humidity;BME280_pressure;Samples;Min_cycle;Max_cycle;Signal;HPM_P1;HPM_P2
2024/03/23 00:00:13;;;;;;;8.20;5.60;;;;;;;9.32;100.00;97503.91;4973620;28;20670;-79
2024/03/23 00:02:43;;;;;;;8.20;5.80;;;;;;;9.23;100.00;97504.59;4973921;28;20736;-79
2024/03/23 00:05:12;;;;;;;8.73;5.73;;;;;;;9.17;100.00;97490.06;4974110;28;20205;-79
2024/03/23 00:07:44;;;;;;;7.73;5.50;;;;;;;9.09;100.00;97486.28;4974545;28;20355;-80
2024/03/23 00:10:13;;;;;;;8.30;5.87;;;;;;;9.02;100.00;97482.44;4974004;28;20240;-79
2024/03/23 00:12:44;;;;;;;8.77;5.87;;;;;;;8.94;100.00;97484.78;4974240;28;20230;-79
2024/03/23 00:15:13;;;;;;;8.27;5.90;;;;;;;8.93;100.00;97475.22;4974596;28;20208;-79
2024/03/23 00:17:43;;;;;;;8.63;5.30;;;;;;;8.91;100.00;97480.59;4975309;28;20550;-79
2024/03/23 00:20:12;;;;;;;8.67;5.47;;;;;;;8.95;100.00;97483.84;4977679;28;20214;-79
2024/03/23 00:22:43;;;;;;;9.10;5.90;;;;;;;8.90;100.00;97475.41;4977936;28;20271;-79
2024/03/23 00:25:12;;;;;;;7.33;5.57;;;;;;;8.87;100.00;97471.22;4978016;28;20237;-79
2024/03/23 00:27:42;;;;;;;9.10;5.87;;;;;;;8.84;100.00;97470.59;4978188;28;20215;-79
2024/03/23 00:30:11;;;;;;;8.03;5.93;;;;;;;8.82;100.00;97460.16;4978229;28;20226;-79
2024/03/23 00:32:41;;;;;;;9.20;6.63;;;;;;;8.81;100.00;97449.75;4977658;28;20710;-79
2024/03/23 00:35:11;;;;;;;7.13;5.60;;;;;;;8.78;100.00;97456.09;4977713;28;20222;-79
2024/03/23 00:37:41;;;;;;;7.93;5.67;;;;;;;8.77;100.00;97449.13;4977489;28;20218;-79
2024/03/23 00:40:10;;;;;;;7.90;5.30;;;;;;;8.74;100.00;97448.50;4977593;28;20232;-79
2024/03/23 00:42:41;;;;;;;6.97;5.33;;;;;;;8.69;100.00;97446.19;4977234;28;20218;-79
2024/03/23 00:45:10;;;;;;;9.30;6.50;;;;;;;8.71;100.00;97436.41;4977521;28;20212;-79
2024/03/23 00:47:40;;;;;;;9.83;6.03;;;;;;;8.67;100.00;97442.84;4977176;28;20211;-79
2024/03/23 00:50:11;;;;;;;9.47;5.80;;;;;;;8.65;100.00;97438.63;4977266;28;20234;-79
2024/03/23 00:52:38;;;;;;;10.50;6.30;;;;;;;8.64;100.00;97421.97;4977800;28;20706;-79
2024/03/23 00:55:04;;;;;;;12.70;6.40;;;;;;;8.65;100.00;97422.84;4978186;28;20218;-79
2024/03/23 00:57:30;;;;;;;9.37;6.00;;;;;;;8.65;100.00;97422.84;4977778;28;20222;-79
2024/03/23 00:59:56;;;;;;;9.63;6.10;;;;;;;8.65;100.00;97418.41;4976918;28;20207;-79
2024/03/23 01:02:22;;;;;;;11.73;6.60;;;;;;;8.62;100.00;97402.81;4977031;28;20320;-79
2024/03/23 01:04:48;;;;;;;9.33;6.30;;;;;;;8.67;100.00;97405.09;4977605;28;20210;-80
2024/03/23 01:07:14;;;;;;;9.47;6.40;;;;;;;8.67;100.00;97405.97;4983373;28;20309;-79
2024/03/23 01:09:41;;;;;;;8.70;5.90;;;;;;;8.75;100.00;97402.78;4983870;28;20233;-80
2024/03/23 01:12:08;;;;;;;9.40;6.20;;;;;;;8.83;100.00;97395.16;4983675;28;20320;-79
2024/03/23 01:14:33;;;;;;;8.20;5.93;;;;;;;8.91;100.00;97391.00;4983517;28;20688;-79
2024/03/23 01:17:00;;;;;;;9.13;6.27;;;;;;;9.02;100.00;97383.13;4984129;28;20217;-79
2024/03/23 01:19:25;;;;;;;7.43;5.87;;;;;;;8.99;100.00;97391.25;4983330;28;20206;-80
2024/03/23 01:21:52;;;;;;;9.80;6.23;;;;;;;9.06;100.00;97362.66;4982272;28;20241;-79
2024/03/23 01:24:17;;;;;;;9.80;6.30;;;;;;;8.99;100.00;97359.63;4982910;28;20218;-80
2024/03/23 01:26:45;;;;;;;10.47;6.30;;;;;;;8.88;100.00;97361.41;4983887;28;20305;-79
2024/03/23 01:29:11;;;;;;;8.73;6.60;;;;;;;8.75;100.00;97371.16;4983345;28;20234;-79
2024/03/23 01:31:37;;;;;;;10.20;6.80;;;;;;;8.67;100.00;97368.22;4983909;28;20319;-79
2024/03/23 01:34:03;;;;;;;10.30;6.67;;;;;;;8.69;100.00;97366.34;4983513;28;20240;-79
2024/03/23 01:36:29;;;;;;;10.53;6.93;;;;;;;8.72;100.00;97364.31;4984631;28;20274;-79
2024/03/23 01:38:55;;;;;;;9.13;6.73;;;;;;;8.73;100.00;97362.50;4987435;28;20305;-80
2024/03/23 01:41:21;;;;;;;8.63;6.80;;;;;;;8.78;100.00;97344.59;4985863;28;20767;-80
2024/03/23 01:43:48;;;;;;;8.27;6.30;;;;;;;8.79;100.00;97346.25;4985189;28;20546;-80
2024/03/23 01:46:15;;;;;;;9.87;6.33;;;;;;;8.88;100.00;97350.84;4983549;28;20217;-79
2024/03/23 01:48:40;;;;;;;7.73;5.53;;;;;;;9.00;100.00;97332.31;4977705;28;20644;-79
2024/03/23 01:51:07;;;;;;;5.77;4.07;;;;;;;9.23;100.00;97312.13;4980898;28;20313;-80
2024/03/23 01:53:33;;;;;;;5.30;4.00;;;;;;;9.62;100.00;97295.84;4982632;28;20222;-80
2024/03/23 01:55:59;;;;;;;5.33;3.33;;;;;;;9.80;100.00;97286.47;4981062;28;20207;-80
2024/03/23 01:58:25;;;;;;;5.70;2.80;;;;;;;9.93;99.18;97268.69;4982129;28;20597;-80
2024/03/23 02:00:53;;;;;;;4.97;2.83;;;;;;;10.06;98.07;97266.78;4981267;28;20250;-81
2024/03/23 02:03:25;;;;;;;3.87;2.50;;;;;;;10.17;96.46;97250.91;4983869;28;20278;-82
2024/03/23 02:05:53;;;;;;;4.40;2.40;;;;;;;10.23;96.24;97245.13;4982105;28;20580;-80
2024/03/23 02:08:20;;;;;;;4.63;2.50;;;;;;;10.25;95.62;97259.91;4981688;28;20221;-80
2024/03/23 02:10:48;;;;;;;1.93;1.83;;;;;;;10.33;95.14;97252.16;4981258;28;20230;-81
2024/03/23 02:13:14;;;;;;;2.47;2.10;;;;;;;10.39;94.47;97245.56;4982075;28;20608;-80
2024/03/23 02:15:41;;;;;;;2.57;2.37;;;;;;;10.41;94.22;97248.91;4981589;28;20799;-80
2024/03/23 02:18:08;;;;;;;3.60;2.40;;;;;;;10.45;93.50;97234.50;4981607;28;20232;-81
2024/03/23 02:20:35;;;;;;;2.40;2.20;;;;;;;10.55;93.07;97240.69;4981161;28;20340;-80
2024/03/23 02:23:02;;;;;;;2.83;2.20;;;;;;;10.60;92.50;97243.78;4982097;28;20212;-81
2024/03/23 02:25:28;;;;;;;3.30;2.30;;;;;;;10.59;92.28;97231.53;4981461;28;20214;-80
2024/03/23 02:27:54;;;;;;;2.60;2.37;;;;;;;10.58;91.94;97229.88;4982740;28;20240;-81
2024/03/23 02:30:21;;;;;;;4.20;2.47;;;;;;;10.61;91.32;97226.94;4981367;28;20298;-81
2024/03/23 02:32:46;;;;;;;4.60;2.40;;;;;;;10.65;91.37;97220.47;4981543;28;20225;-81
2024/03/23 02:35:13;;;;;;;3.40;2.20;;;;;;;10.62;92.04;97233.91;4981777;28;20218;-80
2024/03/23 02:37:39;;;;;;;2.93;2.40;;;;;;;10.70;91.36;97228.84;4981474;28;20210;-81
2024/03/23 02:40:08;;;;;;;3.37;2.40;;;;;;;10.87;90.18;97226.44;4980461;28;20220;-80
2024/03/23 02:42:33;;;;;;;3.10;2.57;;;;;;;10.86;90.01;97213.34;4981037;28;20225;-81
2024/03/23 02:45:00;;;;;;;2.77;2.30;;;;;;;10.81;89.84;97215.53;4979693;28;20224;-81
2024/03/23 02:47:26;;;;;;;3.30;2.30;;;;;;;10.75;90.65;97214.25;4980744;28;20214;-81
2024/03/23 02:49:52;;;;;;;2.50;2.30;;;;;;;10.80;90.25;97213.88;4979871;28;20242;-81
2024/03/23 02:52:18;;;;;;;3.70;2.00;;;;;;;10.84;90.24;97215.28;4979722;28;20794;-80
2024/03/23 02:54:45;;;;;;;2.30;2.10;;;;;;;10.83;90.13;97203.06;4979969;28;20241;-80
2024/03/23 02:57:12;;;;;;;3.53;2.37;;;;;;;10.79;90.28;97206.91;4979175;28;20222;-80
2024/03/23 02:59:38;;;;;;;3.77;2.20;;;;;;;10.86;90.31;97208.06;4979163;28;20246;-80
2024/03/23 03:02:04;;;;;;;3.60;2.40;;;;;;;10.84;90.49;97210.00;4978730;28;20257;-80
2024/03/23 03:04:31;;;;;;;4.63;2.30;;;;;;;10.84;90.92;97210.00;4979816;28;20206;-80
2024/03/23 03:06:56;;;;;;;3.53;2.20;;;;;;;10.85;90.64;97211.69;4979590;28;20305;-82
2024/03/23 03:09:23;;;;;;;2.77;2.13;;;;;;;10.82;91.12;97211.94;4979583;28;20262;-81
2024/03/23 03:11:48;;;;;;;2.47;2.27;;;;;;;10.77;91.66;97209.69;4979532;28;20233;-81
2024/03/23 03:14:16;;;;;;;3.57;2.50;;;;;;;10.70;92.32;97218.28;4979817;28;20209;-81
2024/03/23 03:16:42;;;;;;;2.03;1.83;;;;;;;10.60;93.66;97201.50;4979209;28;20273;-81
2024/03/23 03:19:10;;;;;;;4.47;2.17;;;;;;;10.57;94.29;97214.94;4978931;28;20315;-81
2024/03/23 03:21:35;;;;;;;2.67;2.47;;;;;;;10.52;94.47;97209.25;4979102;28;20226;-80
2024/03/23 03:24:02;;;;;;;3.20;2.10;;;;;;;10.43;94.80;97205.56;4979339;28;20266;-80
2024/03/23 03:26:28;;;;;;;4.57;2.30;;;;;;;10.35;96.07;97223.00;4979074;28;20211;-80
2024/03/23 03:28:54;;;;;;;4.40;2.20;;;;;;;10.24;96.73;97215.13;4977971;28;20668;-80
2024/03/23 03:31:21;;;;;;;3.50;2.33;;;;;;;10.10;98.18;97212.78;4978557;28;20610;-80
2024/03/23 03:33:48;;;;;;;3.30;2.47;;;;;;;10.00;99.55;97207.38;4979256;28;20665;-80
2024/03/23 03:36:13;;;;;;;3.73;2.37;;;;;;;9.94;100.00;97218.44;4979793;28;20494;-80
2024/03/23 03:38:40;;;;;;;3.63;2.57;;;;;;;9.93;100.00;97216.78;4980240;28;20289;-80
2024/03/23 03:41:06;;;;;;;3.30;2.27;;;;;;;9.85;100.00;97221.81;4978240;28;20238;-80
2024/03/23 03:43:32;;;;;;;2.83;2.27;;;;;;;9.91;100.00;97223.13;4977968;28;20268;-80
2024/03/23 03:45:59;;;;;;;2.53;2.30;;;;;;;9.95;100.00;97227.19;4977753;28;20218;-80
2024/03/23 03:48:27;;;;;;;4.57;2.27;;;;;;;9.97;100.00;97217.34;4977756;28;20214;-80
2024/03/23 03:50:53;;;;;;;6.60;2.53;;;;;;;10.01;100.00;97202.94;4977937;28;20234;-80
2024/03/23 03:53:20;;;;;;;3.67;2.20;;;;;;;10.02;100.00;97194.03;4979128;28;20210;-80
2024/03/23 03:55:45;;;;;;;3.53;2.30;;;;;;;9.94;100.00;97181.50;4979214;28;20209;-80
2024/03/23 03:58:12;;;;;;;3.60;2.23;;;;;;;9.99;100.00;97173.19;4979007;28;20223;-80
2024/03/23 04:00:37;;;;;;;3.57;2.47;;;;;;;10.05;100.00;97162.16;4978072;28;20600;-80
2024/03/23 04:03:04;;;;;;;2.37;1.90;;;;;;;10.10;100.00;97155.53;4978363;28;20206;-80
2024/03/23 04:05:31;;;;;;;3.20;2.57;;;;;;;10.24;100.00;97157.03;4979217;28;20658;-80
2024/03/23 04:07:58;;;;;;;2.90;2.30;;;;;;;10.27;100.00;97151.50;4977789;28;20316;-80
2024/03/23 04:10:23;;;;;;;3.27;2.30;;;;;;;10.21;100.00;97144.09;4978377;28;20582;-80
2024/03/23 04:12:50;;;;;;;3.10;2.53;;;;;;;10.24;100.00;97138.53;4977628;28;20217;-80
2024/03/23 04:15:16;;;;;;;2.90;2.40;;;;;;;10.30;100.00;97130.09;4977469;28;20236;-80
2024/03/23 04:17:42;;;;;;;2.80;2.03;;;;;;;10.34;100.00;97128.91;4978351;28;20206;-80
2024/03/23 04:20:10;;;;;;;3.00;2.10;;;;;;;10.39;100.00;97124.88;4978098;28;20293;-80
2024/03/23 04:22:39;;;;;;;5.40;2.37;;;;;;;10.50;100.00;97134.53;4977989;28;20239;-80
2024/03/23 04:25:06;;;;;;;2.77;2.20;;;;;;;10.54;100.00;97138.63;4977469;28;20213;-80
2024/03/23 04:27:33;;;;;;;3.83;2.40;;;;;;;10.57;100.00;97162.13;4977866;28;20261;-80
2024/03/23 04:30:00;;;;;;;4.87;2.87;;;;;;;10.62;99.42;97194.28;4976760;28;20252;-80
2024/03/23 04:32:27;;;;;;;4.07;3.00;;;;;;;10.45;100.00;97223.94;4978604;28;20237;-80
2024/03/23 04:34:54;;;;;;;4.77;3.53;;;;;;;10.17;100.00;97240.34;4980904;28;20289;-80
2024/03/23 04:37:21;;;;;;;3.90;3.37;;;;;;;9.86;100.00;97249.88;4983113;28;20215;-80
2024/03/23 04:39:49;;;;;;;6.83;4.23;;;;;;;9.70;100.00;97241.53;4982602;28;20323;-80
2024/03/23 04:42:16;;;;;;;5.63;4.47;;;;;;;9.65;100.00;97248.09;4981773;28;20247;-80
2024/03/23 04:44:43;;;;;;;8.03;4.90;;;;;;;9.64;100.00;97227.97;4983052;28;20685;-80
2024/03/23 04:47:09;;;;;;;12.00;6.03;;;;;;;9.59;100.00;97233.63;4982781;28;20217;-80
2024/03/23 04:49:38;;;;;;;9.10;6.50;;;;;;;9.58;100.00;97241.63;4983603;28;20526;-80
2024/03/23 04:52:05;;;;;;;12.87;8.07;;;;;;;9.66;100.00;97215.50;4982308;28;20235;-80
2024/03/23 04:54:33;;;;;;;15.83;9.33;;;;;;;9.66;100.00;97226.06;4982494;28;20209;-80
2024/03/23 04:57:00;;;;;;;15.00;10.67;;;;;;;9.71;100.00;97229.16;4982149;28;20224;-80
2024/03/23 04:59:26;;;;;;;20.03;10.97;;;;;;;9.71;100.00;97231.78;4982139;28;20766;-80
2024/03/23 05:01:52;;;;;;;20.97;11.10;;;;;;;9.72;100.00;97233.50;4981701;28;20227;-80
2024/03/23 05:04:18;;;;;;;21.40;12.13;;;;;;;9.76;100.00;97229.63;4984918;28;20226;-80
2024/03/23 05:06:44;;;;;;;20.47;11.43;;;;;;;9.76;100.00;97229.63;4985970;28;20327;-80
2024/03/23 05:09:11;;;;;;;18.53;12.10;;;;;;;9.76;100.00;97232.25;4985893;28;20304;-80
2024/03/23 05:11:37;;;;;;;21.93;13.27;;;;;;;9.75;100.00;97230.59;4985611;28;20324;-80
2024/03/23 05:14:05;;;;;;;19.87;11.83;;;;;;;9.71;100.00;97242.34;4986142;28;20747;-80
2024/03/23 05:16:30;;;;;;;19.00;11.77;;;;;;;9.72;100.00;97241.41;4985741;28;20289;-80
2024/03/23 05:18:57;;;;;;;20.70;12.57;;;;;;;9.66;100.00;97242.72;4985622;28;20245;-80
2024/03/23 05:21:22;;;;;;;23.70;12.70;;;;;;;9.61;100.00;97249.31;4985241;28;20236;-80
2024/03/23 05:23:49;;;;;;;19.97;12.33;;;;;;;9.60;100.00;97247.66;4985573;28;20305;-80
2024/03/23 05:26:14;;;;;;;23.27;12.13;;;;;;;9.54;100.00;97250.78;4984603;28;20231;-80
2024/03/23 05:28:41;;;;;;;23.13;13.10;;;;;;;9.53;100.00;97255.19;4976960;28;20297;-80
2024/03/23 05:31:08;;;;;;;21.07;11.93;;;;;;;9.52;100.00;97263.22;4976496;28;20242;-80
2024/03/23 05:33:35;;;;;;;22.27;12.80;;;;;;;9.52;100.00;97252.66;4976765;28;20245;-80
2024/03/23 05:36:01;;;;;;;20.87;12.53;;;;;;;9.50;100.00;97263.38;4976775;28;20217;-80
2024/03/23 05:38:29;;;;;;;18.57;11.20;;;;;;;9.48;100.00;97257.34;4977433;28;20222;-80
2024/03/23 05:40:54;;;;;;;21.50;11.30;;;;;;;9.42;100.00;97257.84;4976586;28;20243;-80
2024/03/23 05:43:21;;;;;;;15.93;9.57;;;;;;;9.45;100.00;97265.53;4976747;28;20217;-80
2024/03/23 05:45:53;;;;;;;14.00;8.57;;;;;;;9.38;100.00;97261.69;4977372;28;20210;-80
2024/03/23 05:48:21;;;;;;;11.87;6.70;;;;;;;9.32;100.00;97280.63;4991598;28;20689;-80
2024/03/23 05:50:46;;;;;;;8.30;4.90;;;;;;;9.22;100.00;97284.91;4976608;28;20234;-80
2024/03/23 05:53:13;;;;;;;8.87;4.97;;;;;;;9.13;100.00;97284.78;4976621;28;20340;-80
2024/03/23 05:55:39;;;;;;;8.10;5.10;;;;;;;9.02;100.00;97290.03;4976426;28;20213;-80
2024/03/23 05:58:05;;;;;;;8.97;5.10;;;;;;;8.97;100.00;97287.75;4976586;28;20272;-80
2024/03/23 06:00:31;;;;;;;8.03;4.20;;;;;;;8.93;100.00;97290.75;4978833;28;20229;-80
2024/03/23 06:02:58;;;;;;;7.03;4.90;;;;;;;8.91;100.00;97280.31;4978341;28;20216;-80
2024/03/23 06:05:25;;;;;;;9.83;5.23;;;;;;;8.95;100.00;97294.09;4980252;28;20222;-81
2024/03/23 06:07:51;;;;;;;7.07;5.17;;;;;;;8.92;100.00;97303.06;4978087;28;20210;-81
2024/03/23 06:10:17;;;;;;;8.27;4.53;;;;;;;8.93;100.00;97304.75;4976024;28;20214;-80
2024/03/23 06:12:43;;;;;;;10.77;4.80;;;;;;;8.91;100.00;97301.41;4975741;28;20208;-81
2024/03/23 06:15:10;;;;;;;6.70;4.30;;;;;;;8.92;100.00;97310.97;4975138;28;20208;-82
2024/03/23 06:17:37;;;;;;;7.77;4.60;;;;;;;8.90;100.00;97309.41;4977248;28;20212;-80
2024/03/23 06:20:03;;;;;;;9.27;4.17;;;;;;;8.87;100.00;97322.84;4976250;28;20210;-80
2024/03/23 06:22:31;;;;;;;6.93;3.97;;;;;;;8.83;100.00;97324.84;4978438;28;20219;-80
2024/03/23 06:24:57;;;;;;;6.93;3.93;;;;;;;8.84;100.00;97323.03;4977878;28;20209;-80
2024/03/23 06:27:23;;;;;;;6.70;3.83;;;;;;;8.82;100.00;97314.44;4976033;28;20237;-80
2024/03/23 06:29:49;;;;;;;6.10;3.53;;;;;;;8.83;100.00;97319.59;4975619;28;20213;-81
2024/03/23 06:32:15;;;;;;;4.67;3.30;;;;;;;8.83;100.00;97331.91;4975007;28;20251;-79
2024/03/23 06:34:41;;;;;;;6.03;3.03;;;;;;;8.85;100.00;97343.16;4975524;28;20211;-79
2024/03/23 06:37:09;;;;;;;4.37;2.73;;;;;;;8.87;100.00;97357.91;4975332;28;20220;-79
2024/03/23 06:39:36;;;;;;;3.60;2.47;;;;;;;8.85;100.00;97366.88;4974904;28;20221;-79
2024/03/23 06:42:03;;;;;;;3.67;2.37;;;;;;;8.83;100.00;97381.97;4974710;28;20258;-80
2024/03/23 06:44:29;;;;;;;4.27;2.30;;;;;;;8.82;100.00;97393.47;4977348;28;20221;-79
2024/03/23 06:46:56;;;;;;;4.10;2.40;;;;;;;8.79;100.00;97378.72;4979161;28;20230;-81
2024/03/23 06:49:22;;;;;;;3.33;1.97;;;;;;;8.74;100.00;97391.38;4976142;28;20239;-81
2024/03/23 06:51:49;;;;;;;2.80;1.90;;;;;;;8.74;100.00;97399.28;4974834;28;20692;-80
2024/03/23 06:54:14;;;;;;;2.53;1.80;;;;;;;8.76;100.00;97404.47;4975314;28;20300;-79
2024/03/23 06:56:42;;;;;;;1.70;1.30;;;;;;;8.77;100.00;97400.84;4975281;28;20740;-80
2024/03/23 06:59:08;;;;;;;1.20;1.10;;;;;;;8.79;100.00;97406.84;4975744;28;20297;-79
2024/03/23 07:01:35;;;;;;;1.23;1.00;;;;;;;8.78;100.00;97407.81;4975930;28;20264;-79
2024/03/23 07:04:00;;;;;;;2.23;1.00;;;;;;;8.74;100.00;97423.00;4975834;28;20209;-81
2024/03/23 07:06:27;;;;;;;1.00;0.73;;;;;;;8.69;100.00;97421.66;4974721;28;20212;-79
2024/03/23 07:08:52;;;;;;;1.20;1.10;;;;;;;8.69;100.00;97430.38;4974943;28;20235;-79
2024/03/23 07:11:20;;;;;;;1.27;0.90;;;;;;;8.78;100.00;97439.41;4993858;28;20249;-79
2024/03/23 07:13:49;;;;;;;1.13;1.03;;;;;;;8.83;100.00;97442.56;4997317;28;20217;-79
2024/03/23 07:16:17;;;;;;;1.37;0.97;;;;;;;8.89;100.00;97450.03;4994037;28;20314;-80
2024/03/23 07:18:42;;;;;;;0.83;0.83;;;;;;;8.97;100.00;97448.50;4993225;28;20269;-77
2024/03/23 07:21:09;;;;;;;1.13;1.00;;;;;;;8.99;100.00;97453.69;4976064;28;20321;-77
2024/03/23 07:23:35;;;;;;;1.00;0.90;;;;;;;9.08;100.00;97450.34;4978355;28;20224;-78
2024/03/23 07:26:03;;;;;;;1.17;1.07;;;;;;;9.20;100.00;97460.84;4978882;28;20294;-77
2024/03/23 07:28:31;;;;;;;0.90;0.90;;;;;;;9.26;100.00;97463.03;4983570;28;20207;-76
2024/03/23 07:31:05;;;;;;;0.80;0.80;;;;;;;9.33;100.00;97458.13;4994281;28;20223;-76
2024/03/23 07:33:31;;;;;;;1.23;0.90;;;;;;;9.33;100.00;97468.66;4982839;28;20210;-76
2024/03/23 07:35:59;;;;;;;1.00;0.83;;;;;;;9.34;100.00;97470.34;4994412;28;20274;-76
2024/03/23 07:38:24;;;;;;;0.70;0.70;;;;;;;9.29;100.00;97468.06;4983987;28;20210;-77
2024/03/23 07:40:55;;;;;;;1.13;0.83;;;;;;;9.22;100.00;97471.25;4983247;28;20291;-76
2024/03/23 07:43:20;;;;;;;0.70;0.70;;;;;;;9.19;100.00;97487.31;4977044;28;20213;-76
2024/03/23 07:45:52;;;;;;;0.60;0.60;;;;;;;9.19;100.00;97497.84;4977316;28;20222;-76
2024/03/23 07:48:22;;;;;;;1.40;0.60;;;;;;;9.15;100.00;97499.03;4976256;28;20215;-77
2024/03/23 07:50:57;;;;;;;0.80;0.77;;;;;;;9.15;100.00;97507.78;4977944;28;20293;-79
2024/03/23 07:53:22;;;;;;;0.80;0.77;;;;;;;9.01;100.00;97515.00;4976777;28;20209;-77
2024/03/23 07:55:55;;;;;;;0.70;0.70;;;;;;;9.04;100.00;97520.06;4975770;28;20206;-76
2024/03/23 07:58:20;;;;;;;0.80;0.80;;;;;;;9.00;100.00;97535.25;4975463;28;20581;-77
2024/03/23 08:00:47;;;;;;;2.27;0.80;;;;;;;8.94;100.00;97542.78;4975707;28;20230;-77
2024/03/23 08:03:12;;;;;;;0.60;0.60;;;;;;;8.82;100.00;97557.66;4978488;28;20213;-78
2024/03/23 08:05:40;;;;;;;1.20;1.03;;;;;;;8.63;100.00;97546.72;4978184;28;20216;-77
2024/03/23 08:08:06;;;;;;;1.10;1.00;;;;;;;8.43;100.00;97533.28;4989452;28;20214;-78
2024/03/23 08:10:32;;;;;;;0.80;0.80;;;;;;;8.33;100.00;97532.25;4991828;28;20245;-78
2024/03/23 08:12:58;;;;;;;0.70;0.70;;;;;;;8.38;100.00;97545.94;4994558;28;20206;-78
2024/03/23 08:15:24;;;;;;;0.90;0.90;;;;;;;8.48;100.00;97563.63;4997292;28;20196;-78
2024/03/23 08:17:50;;;;;;;0.70;0.70;;;;;;;8.49;100.00;97560.03;4997110;28;20205;-78
2024/03/23 08:20:17;;;;;;;2.08;1.00;;;;;;;8.48;100.00;97574.16;4995393;28;20457;-78
2024/03/23 08:22:44;;;;;;;1.03;0.87;;;;;;;8.42;100.00;97584.25;4996550;28;20214;-77
2024/03/23 08:25:10;;;;;;;0.80;0.73;;;;;;;8.31;100.00;97586.78;4996918;28;20202;-77
2024/03/23 08:27:35;;;;;;;0.60;0.60;;;;;;;8.20;100.00;97589.34;4997099;28;20210;-77
2024/03/23 08:30:02;;;;;;;0.52;0.52;;;;;;;8.06;100.00;97581.47;4996572;28;20445;-78
2024/03/23 08:32:28;;;;;;;0.80;0.60;;;;;;;7.97;100.00;97584.75;4996822;28;20373;-78
2024/03/23 08:34:55;;;;;;;0.50;0.50;;;;;;;7.87;100.00;97599.44;4995807;28;20219;-76
2024/03/23 08:37:20;;;;;;;0.70;0.70;;;;;;;7.87;100.00;97628.41;4995188;28;20292;-77
2024/03/23 08:39:48;;;;;;;0.60;0.60;;;;;;;8.12;100.00;97636.34;4998574;28;20202;-77
2024/03/23 08:42:14;;;;;;;0.87;0.80;;;;;;;8.39;100.00;97648.50;4999627;28;20241;-77
2024/03/23 08:44:43;;;;;;;1.43;0.90;;;;;;;8.56;100.00;97655.28;4998735;28;20209;-77
2024/03/23 08:47:08;;;;;;;3.17;1.37;;;;;;;8.65;100.00;97665.16;4997737;28;20225;-77
2024/03/23 08:49:35;;;;;;;3.30;1.60;;;;;;;8.70;100.00;97653.34;4978201;28;20296;-77
2024/03/23 08:52:00;;;;;;;6.57;2.37;;;;;;;8.81;100.00;97645.56;4976514;28;20240;-77
2024/03/23 08:54:29;;;;;;;2.83;1.20;;;;;;;8.81;100.00;97628.91;4999840;28;20270;-77
2024/03/23 08:56:55;;;;;;;2.83;1.20;;;;;;;8.83;100.00;97621.75;5000283;28;20195;-77
2024/03/23 08:59:23;;;;;;;1.90;1.00;;;;;;;8.73;100.00;97620.69;5000561;28;20197;-77
2024/03/23 09:01:49;;;;;;;2.27;1.30;;;;;;;8.70;100.00;97642.81;5000339;28;20238;-77
2024/03/23 09:04:15;;;;;;;2.07;1.13;;;;;;;8.69;100.00;97641.13;5000643;28;20221;-77
2024/03/23 09:06:42;;;;;;;2.17;1.00;;;;;;;8.68;100.00;97646.50;5000423;28;20216;-77
2024/03/23 09:09:09;;;;;;;2.57;1.10;;;;;;;8.75;100.00;97661.78;4996641;28;20211;-77
2024/03/23 09:11:34;;;;;;;3.03;1.47;;;;;;;8.98;100.00;97689.16;4993865;28;20305;-76
2024/03/23 09:14:02;;;;;;;3.37;1.43;;;;;;;9.15;100.00;97686.19;4992247;28;20215;-76
2024/03/23 09:16:28;;;;;;;3.40;1.60;;;;;;;9.04;100.00;97678.19;4992969;28;20217;-78
2024/03/23 09:18:54;;;;;;;3.37;1.57;;;;;;;9.18;100.00;97707.09;5000359;28;20218;-78
2024/03/23 09:21:21;;;;;;;7.10;2.20;;;;;;;9.35;100.00;97704.09;4995102;28;20328;-75
2024/03/23 09:23:46;;;;;;;4.10;2.30;;;;;;;9.42;98.83;97684.25;4985730;28;20213;-77
2024/03/23 09:26:13;;;;;;;3.27;1.90;;;;;;;9.34;90.73;97654.94;4989164;28;20270;-75
2024/03/23 09:28:39;;;;;;;4.40;2.23;;;;;;;9.19;87.90;97637.59;5001196;28;20194;-77
2024/03/23 09:31:08;;;;;;;4.10;2.53;;;;;;;9.18;92.16;97664.91;4998501;28;20317;-76
2024/03/23 09:33:34;;;;;;;4.13;2.43;;;;;;;9.18;92.20;97681.56;5001060;28;20222;-76
2024/03/23 09:36:04;;;;;;;6.67;2.60;;;;;;;9.18;90.33;97675.44;5001338;28;20265;-76
2024/03/23 09:38:30;;;;;;;6.20;2.13;;;;;;;9.07;88.12;97662.19;5001142;28;20247;-76
2024/03/23 09:40:58;;;;;;;5.07;2.53;;;;;;;8.97;87.00;97654.09;4999716;28;20238;-77
2024/03/23 09:43:23;;;;;;;6.20;2.10;;;;;;;8.95;90.33;97684.97;5001160;28;20202;-77
2024/03/23 09:45:50;;;;;;;4.77;2.50;;;;;;;8.95;89.49;97663.03;5000479;28;20296;-79
2024/03/23 09:48:17;;;;;;;3.77;1.90;;;;;;;8.89;88.77;97653.78;4998497;28;20282;-77
2024/03/23 09:50:46;;;;;;;4.70;2.30;;;;;;;8.89;87.86;97650.28;4998780;28;20218;-77
2024/03/23 09:53:13;;;;;;;5.43;2.37;;;;;;;9.00;88.04;97645.13;5000276;28;20213;-77
2024/03/23 09:55:41;;;;;;;2.57;2.00;;;;;;;9.04;83.20;97615.78;5000200;28;20202;-78
2024/03/23 09:58:06;;;;;;;6.30;2.10;;;;;;;8.95;84.75;97631.41;5000749;28;20207;-78
2024/03/23 10:00:34;;;;;;;5.33;2.20;;;;;;;8.81;82.35;97623.66;4999743;28;20225;-78
2024/03/23 10:03:01;;;;;;;4.10;2.50;;;;;;;8.79;82.10;97626.38;5000563;28;20271;-77
2024/03/23 10:05:31;;;;;;;4.00;2.43;;;;;;;8.90;82.71;97638.78;4995674;28;20205;-77
2024/03/23 10:07:56;;;;;;;5.50;2.67;;;;;;;9.03;86.17;97663.34;4979398;28;20537;-76
2024/03/23 10:10:25;;;;;;;5.87;2.60;;;;;;;9.19;87.77;97667.41;4974794;28;20244;-76
2024/03/23 10:12:51;;;;;;;4.40;2.40;;;;;;;9.34;89.38;97670.75;4975241;28;20232;-78
2024/03/23 10:15:20;;;;;;;6.17;2.70;;;;;;;9.34;84.05;97633.84;4974652;28;20219;-76
2024/03/23 10:17:46;;;;;;;9.63;2.70;;;;;;;9.42;78.68;97599.84;4975086;28;20218;-76
2024/03/23 10:20:13;;;;;;;3.47;2.23;;;;;;;9.34;76.09;97597.78;4974666;28;20206;-77
2024/03/23 10:22:40;;;;;;;5.37;2.40;;;;;;;9.40;75.74;97602.59;4975067;28;20210;-76
2024/03/23 10:25:10;;;;;;;3.87;2.40;;;;;;;9.38;75.48;97593.13;4974808;28;20211;-77
2024/03/23 10:27:36;;;;;;;5.00;2.13;;;;;;;9.21;77.24;97610.16;4980213;28;20210;-83
2024/03/23 10:30:10;;;;;;;3.90;2.20;;;;;;;9.10;77.52;97614.50;4982326;28;20233;-78
2024/03/23 10:32:35;;;;;;;2.63;2.10;;;;;;;9.19;78.28;97621.78;4974012;28;20783;-78
2024/03/23 10:35:15;;;;;;;6.63;2.40;;;;;;;9.33;79.37;97629.53;4974215;28;20214;-78
2024/03/23 10:37:42;;;;;;;4.87;2.40;;;;;;;9.39;80.25;97637.84;4974560;28;20213;-78
2024/03/23 10:40:13;;;;;;;7.20;2.50;;;;;;;9.51;77.78;97620.28;4975248;28;20208;-78
2024/03/23 10:42:39;;;;;;;7.03;2.50;;;;;;;9.42;75.62;97602.50;4974930;28;20638;-78
2024/03/23 10:45:07;;;;;;;5.57;2.27;;;;;;;9.41;73.69;97591.09;4973815;28;20744;-78
2024/03/23 10:47:35;;;;;;;5.73;2.50;;;;;;;9.26;72.41;97594.00;4974005;28;20325;-78
2024/03/23 10:50:02;;;;;;;6.57;2.50;;;;;;;9.00;76.68;97645.13;4973950;28;20711;-77
2024/03/23 10:52:27;;;;;;;7.27;3.27;;;;;;;8.11;88.02;97738.16;4973373;28;20234;-78
2024/03/23 10:54:57;;;;;;;5.60;3.07;;;;;;;7.31;95.64;97783.72;4973567;28;20540;-78
2024/03/23 10:57:29;;;;;;;8.13;4.17;;;;;;;6.74;100.00;97797.75;4972918;28;20442;-77
2024/03/23 10:59:57;;;;;;;7.47;3.80;;;;;;;6.47;100.00;97815.09;4978274;28;20585;-79
2024/03/23 11:02:23;;;;;;;7.87;3.40;;;;;;;6.43;100.00;97831.97;4979258;28;20232;-79
2024/03/23 11:04:49;;;;;;;8.50;3.90;;;;;;;6.28;100.00;97830.22;4974372;28;20711;-77
2024/03/23 11:07:31;;;;;;;10.30;5.60;;;;;;;6.23;100.00;97839.28;4976264;28;20442;-79
2024/03/23 11:09:59;;;;;;;7.90;4.47;;;;;;;6.22;100.00;97846.31;4987934;28;20221;-80
2024/03/23 11:12:31;;;;;;;9.40;3.50;;;;;;;6.16;100.00;97830.91;4992063;28;20238;-77
2024/03/23 11:15:00;;;;;;;6.17;3.57;;;;;;;6.28;100.00;97795.28;4993555;28;20603;-77
2024/03/23 11:17:26;;;;;;;8.80;4.20;;;;;;;6.48;100.00;97781.84;4980175;28;20219;-77
2024/03/23 11:19:57;;;;;;;9.67;4.10;;;;;;;6.78;100.00;97786.09;4976183;28;20207;-78
2024/03/23 11:22:39;;;;;;;4.07;2.87;;;;;;;6.96;100.00;97777.13;4976242;28;20235;-77
2024/03/23 11:25:16;;;;;;;6.10;3.27;;;;;;;7.23;100.00;97783.34;4975664;28;20272;-78
2024/03/23 11:27:43;;;;;;;6.07;3.40;;;;;;;7.43;100.00;97780.31;4975384;28;20218;-77
2024/03/23 11:30:15;;;;;;;5.93;3.67;;;;;;;7.74;100.00;97780.09;4977189;28;20252;-78